AirNav   Pilot Hours Calculator
 
 1637 users online  

MU52 SSM Health Cardinal Glennon Children's Hospital Heliport
St Louis, Missouri, USA

GOING TO ST LOUIS?


FAA INFORMATION EFFECTIVE 17 JUNE 2021

Location

FAA Identifier: MU52
Lat/Long: 38-37-22.3800N 090-14-20.9700W
38-37.373000N 090-14.349500W
38.6228833,-90.2391583
(estimated)
Elevation: 450 ft. / 137 m (estimated)
Variation: 02E (1985)
From city: 4 miles E of ST LOUIS, MO
Time zone: UTC -5 (UTC -6 during Standard Time)
Zip code: 63110

Heliport Operations

Heliport use: Private use, MEDICAL.
Activation date: 05/1985
Control tower: no
ARTCC: KANSAS CITY CENTER
FSS: SAINT LOUIS FLIGHT SERVICE STATION
Attendance: CONTINUOUS
Wind indicator: yes
Segmented circle: no
Lights: SS-SR

Heliport Communications

WX ASOS at CPS (5 nm SE): PHONE 618-332-0001
WX ASOS at STL (10 nm NW): PHONE 314-890-4790
WX AWOS-3 at ALN (18 nm NE): 128.0 (618-259-7231)
WX ASOS at SUS (19 nm W): 134.8 (314-890-7255)

Nearby radio navigation aids

VOR radial/distance  VOR name  Freq  Var
TOYr241/16.6TROY VORTAC116.0004E
STLr140/18.3ST LOUIS VORTAC117.4001E
FTZr092/34.6FORISTELL VORTAC110.8005E

 
NDB name  Hdg/Dist  Freq  Var  ID
ACORE306/10.535000ECP -.-. .--.
EAVES104/14.822701WFZ ..-. --..
CIVIC MEMORIAL209/18.326301WCVM -.-. ...- --

Heliport Services

Runway Information

Helipad H1

Dimensions: 30 x 30 ft. / 9 x 9 m
Surface: concrete
Runway edge lights: PERI
Latitude: 38-37.373000N
Longitude: 090-14.349500W
Elevation: 450.0 ft.
Traffic pattern: leftleft

Heliport Ownership and Management from official FAA records

Ownership: Privately-owned
Owner: CARDINAL GLENNON CHILDREN'S HOSP
1465 S GRAND BLVD
ST LOUIS, MO 63104
Phone (314) 989-6134
Manager: MADISON HIMELRIGHT
1015 CORPORATE SQUARE DR., SUITE 160
ST LOUIS, MO 63132
Phone (314) 989-6134

Additional Remarks

A52-H1 95 FT BLDG 70 FT NORTH; 12 FT CANOPY 30 FT NORTH; & A 47 FT BLDG 100 FT EAST OF HELIPAD.
FOR CD CTC ST LOUIS APCH AT 314-890-1018.

Instrument Procedures

There are no published instrument procedures at MU52.

Some nearby airports with instrument procedures:

KCPS - St Louis Downtown Airport (5 nm SE)
KSTL - St Louis Lambert International Airport (10 nm NW)
1H0 - Creve Coeur Airport (14 nm NW)
KALN - St Louis Regional Airport (18 nm NE)
KSUS - Spirit of St Louis Airport (19 nm W)
KBLV - Scott Air Force Base/MidAmerica Airport (20 nm E)
 
Loc | Ops | Rwys | IFR | FBO | Links
Com | Nav | Svcs | Stats | Notes
Area around MU52 (SSM Health Cardinal Glennon Children's Hospital Heliport)
 
Road maps at: MapQuest Bing Google
 
Aerial photo
No photo
 
Sectional chart

 
Airport distance calculator
Flying to SSM Health Cardinal Glennon Children's Hospital Heliport? Find the distance to fly.

From to MU52

Sunrise and sunset
Times for 24-Jun-2021
 Local
(UTC-5)
 Zulu
(UTC)
Morning civil twilight05:0710:07
Sunrise05:3810:38
Sunset20:2801:28
Evening civil twilight21:0002:00

Current date and time
Zulu (UTC)  24-Jun-2021 19:11:11
Local (UTC-5)  24-Jun-2021 14:11:11
 
METAR
KCPS 
5nm SE 
241853Z 17005KT 10SM SCT032 28/22 A2998 RMK AO2 SLP149 T02780222
KSTL 
10nm NW 
241851Z 21008KT 10SM FEW050 SCT070 BKN160 OVC250 27/21 A2999 RMK AO2 SLP146 RAE41 TSE22 P0000 T02720211
KALN 
18nm NE 
241847Z 10004KT 7SM SCT030 BKN038 24/24 A3000 RMK LTG DSNT NE
KSUS 
19nm W 
241854Z 14004KT 10SM CLR 25/22 A2996 RMK AO2 RAE31 TSE1758 PRESFR SLP136 P0000 T02500222
KBLV 
20nm E 
241856Z 20008KT 10SM BKN036 27/24 A2999 RMK AO2A SLP156 T02740240 $
TAF
KCPS 
5nm SE 
241723Z 2418/2518 19008KT P6SM OVC050 FM241900 19009KT P6SM VCTS OVC050CB FM242100 18011G18KT P6SM BKN050 FM250800 19010KT 4SM SHRA BR VCTS OVC040CB FM251400 19009KT P6SM BKN035
KSTL 
10nm NW 
241723Z 2418/2524 19008KT P6SM VCTS OVC050CB TEMPO 2418/2420 3SM TSRA FM242100 18012G18KT P6SM BKN050 FM250700 19011KT 4SM SHRA BR VCTS OVC040CB FM251300 19010KT P6SM BKN035 FM252000 20011KT P6SM SHRA VCTS BKN045CB
KSUS 
19nm W 
241723Z 2418/2518 20008KT P6SM VCTS OVC050CB TEMPO 2418/2420 3SM TSRA FM242100 18012KT P6SM BKN050 FM250700 19009KT 4SM SHRA BR VCTS OVC040CB FM251300 19009KT P6SM BKN035
KBLV 
20nm E 
241600Z 2416/2522 20010G15KT 9999 BKN050 QNH2990INS BECMG 2419/2420 18020G25KT 9000 -SHRA BKN030 QNH2989INS BECMG 2423/2424 18009KT 9999 NSW SCT050 QNH2986INS BECMG 2505/2506 18009KT 9000 -SHRA BKN030 QNH2990INS BECMG 2511/2512 20015G20KT 9999 NSW BKN030 QNH2991INS TX34/2420Z TN25/2511Z
NOTAMs
Click for the latest NOTAMs
NOTAMs are issued by the DoD/FAA and will open in a separate window not controlled by AirNav.

 

 
 

Would you like to see your business listed on this page?

 If your business provides an interesting product or service to pilots, flight crews, aircraft, or users of the SSM Health Cardinal Glennon Children's Hospital Heliport, you should consider listing it here.  To start the listing process, click on the button below
 
Add a business
 

Other Pages about SSM Health Cardinal Glennon Children's Hospital Heliport

Update a link
 
Copyright © AirNav, LLC. All rights reserved. Privacy Policy  Contact